Terminal Aerodrome Forecast
Issued by NWS

Home | Current Version | Previous Version | Text Only | Print | Product List | Glossary On
Versions: 1 2 3 4 5 6 7 8 9 10 11 12 13 14 15 16 17 18 19 20
000
FTUS46 KSEW 252106 AAB
TAFCLM
TAF AMD
KCLM 252106Z 2521/2618 VRB05KT P6SM VCSH SCT011 OVC080
      TEMPO 2521/2524 BKN011 OVC080
     FM260200 27004KT P6SM FEW015 OVC035
     FM261200 VRB03KT 4SM BR OVC008=

USA.gov is the U.S. government's official web portal to all federal, state and local government web resources and services.